createdAt,value
2023-05-15T00:01:09.239Z,11.50
2023-05-15T00:03:37.626Z,11.52
2023-05-15T00:06:07.022Z,11.56
2023-05-15T00:08:37.015Z,11.54
2023-05-15T00:11:05.103Z,11.52
2023-05-15T00:13:34.623Z,11.52
2023-05-15T00:16:02.877Z,11.55
2023-05-15T00:18:31.185Z,11.52
2023-05-15T00:20:59.469Z,11.47
2023-05-15T00:23:27.900Z,11.49
2023-05-15T00:25:57.587Z,11.44
2023-05-15T00:28:26.508Z,11.42
2023-05-15T00:30:54.598Z,11.41
2023-05-15T00:33:22.664Z,11.35
2023-05-15T00:35:51.101Z,11.31
2023-05-15T00:38:19.200Z,11.28
2023-05-15T00:40:47.763Z,11.25
2023-05-15T00:43:19.456Z,11.22
2023-05-15T00:45:48.700Z,11.20
2023-05-15T00:48:17.733Z,11.19
2023-05-15T00:50:47.151Z,11.20
2023-05-15T00:53:17.443Z,11.20
2023-05-15T00:55:48.540Z,11.20
2023-05-15T00:58:19.674Z,11.19
2023-05-15T01:00:49.889Z,11.20
2023-05-15T01:03:18.207Z,11.20
2023-05-15T01:05:46.503Z,11.18
2023-05-15T01:08:20.457Z,11.18
2023-05-15T01:10:51.467Z,11.16
2023-05-15T01:13:21.585Z,11.18
2023-05-15T01:15:50.670Z,11.21
2023-05-15T01:18:19.180Z,11.20
2023-05-15T01:21:03.193Z,11.20
2023-05-15T01:23:46.494Z,11.19
2023-05-15T01:26:48.526Z,11.23
2023-05-15T01:29:25.566Z,11.21
2023-05-15T01:31:59.995Z,11.22
2023-05-15T01:34:35.493Z,11.21
2023-05-15T01:37:05.474Z,11.19
2023-05-15T01:39:37.117Z,11.18
2023-05-15T01:42:09.197Z,11.18
2023-05-15T01:44:44.981Z,11.16
2023-05-15T01:47:16.616Z,11.23
2023-05-15T01:49:46.903Z,11.25
2023-05-15T01:52:19.160Z,11.19
2023-05-15T01:54:49.347Z,11.19
2023-05-15T01:57:20.245Z,11.11
2023-05-15T01:59:51.370Z,11.09
2023-05-15T02:02:20.955Z,11.12
2023-05-15T02:04:50.877Z,11.08
2023-05-15T02:07:19.241Z,11.09
2023-05-15T02:09:48.398Z,11.08
2023-05-15T02:12:16.903Z,11.04
2023-05-15T02:14:46.315Z,11.11
2023-05-15T02:17:16.409Z,11.23
2023-05-15T02:19:44.558Z,11.21
2023-05-15T02:22:13.568Z,11.22
2023-05-15T02:24:41.665Z,11.20
2023-05-15T02:27:18.786Z,11.19
2023-05-15T02:30:03.112Z,11.13
2023-05-15T02:32:41.686Z,11.08
2023-05-15T02:35:19.332Z,11.00
2023-05-15T02:37:50.840Z,10.95
2023-05-15T02:40:21.420Z,10.93
2023-05-15T02:42:50.692Z,10.96
2023-05-15T02:45:18.811Z,10.93
2023-05-15T02:47:50.650Z,10.90
2023-05-15T02:50:19.823Z,10.89
2023-05-15T02:52:48.132Z,10.90
2023-05-15T02:55:16.402Z,10.88
2023-05-15T02:57:44.469Z,10.85
2023-05-15T03:00:14.594Z,10.82
2023-05-15T03:02:42.720Z,10.85
2023-05-15T03:05:12.454Z,10.88
2023-05-15T03:07:41.394Z,10.91
2023-05-15T03:10:10.196Z,10.92
2023-05-15T03:12:38.383Z,10.91
2023-05-15T03:15:25.603Z,10.91
2023-05-15T03:17:54.035Z,10.96
2023-05-15T03:20:23.658Z,10.98
2023-05-15T03:22:54.219Z,11.00
2023-05-15T03:25:27.149Z,11.06
2023-05-15T03:27:56.869Z,11.09
2023-05-15T03:30:25.135Z,11.14
2023-05-15T03:32:54.050Z,11.15
2023-05-15T03:35:23.873Z,11.16
2023-05-15T03:37:52.084Z,11.22
2023-05-15T03:40:20.415Z,11.26
2023-05-15T03:42:48.437Z,11.23
2023-05-15T03:45:16.942Z,11.24
2023-05-15T03:47:45.099Z,11.28
2023-05-15T03:50:13.814Z,11.30
2023-05-15T03:52:43.429Z,11.33
2023-05-15T03:55:11.652Z,11.36
2023-05-15T03:57:41.623Z,11.44
2023-05-15T04:00:11.167Z,11.44
2023-05-15T04:02:40.515Z,11.53
2023-05-15T04:05:09.875Z,11.59
2023-05-15T04:07:39.268Z,11.69
2023-05-15T04:10:09.798Z,11.69
2023-05-15T04:12:38.328Z,11.71
2023-05-15T04:15:17.205Z,11.83
2023-05-15T04:17:45.771Z,11.90
2023-05-15T04:20:15.045Z,11.98
2023-05-15T04:22:44.388Z,12.23
2023-05-15T04:25:15.183Z,12.30
2023-05-15T04:27:44.669Z,12.45
2023-05-15T04:30:14.161Z,12.63
2023-05-15T04:32:43.075Z,12.58
2023-05-15T04:35:13.727Z,12.48
2023-05-15T04:37:43.533Z,12.46
2023-05-15T04:40:15.318Z,12.31
2023-05-15T04:42:44.178Z,12.29
2023-05-15T04:45:13.703Z,12.42
2023-05-15T04:47:42.351Z,12.46
2023-05-15T04:50:10.953Z,12.53
2023-05-15T04:52:39.324Z,12.57
2023-05-15T04:55:08.860Z,12.52
2023-05-15T04:57:38.730Z,12.69
2023-05-15T05:00:13.185Z,12.70
2023-05-15T05:02:41.711Z,12.61
2023-05-15T05:05:10.327Z,12.53
2023-05-15T05:07:38.337Z,12.57
2023-05-15T05:10:07.740Z,12.66
2023-05-15T05:12:35.791Z,12.80
2023-05-15T05:15:06.025Z,12.79
2023-05-15T05:17:34.104Z,12.85
2023-05-15T05:20:02.284Z,13.09
2023-05-15T05:22:31.944Z,13.14
2023-05-15T05:25:00.616Z,13.18
2023-05-15T05:27:28.952Z,13.25
2023-05-15T05:29:57.595Z,13.33
2023-05-15T05:32:27.532Z,13.58
2023-05-15T05:34:56.480Z,13.60
2023-05-15T05:37:24.847Z,13.67
2023-05-15T05:39:53.051Z,13.66
2023-05-15T05:42:21.150Z,13.67
2023-05-15T05:44:49.192Z,13.79
2023-05-15T05:47:17.214Z,13.82
2023-05-15T05:49:48.245Z,13.82
2023-05-15T05:52:18.604Z,13.97
2023-05-15T05:54:48.224Z,14.15
2023-05-15T05:57:16.729Z,14.20
2023-05-15T05:59:46.092Z,14.10
2023-05-15T06:02:14.721Z,13.98
2023-05-15T06:04:42.922Z,14.16
2023-05-15T06:07:13.186Z,14.12
2023-05-15T06:09:41.644Z,14.17
2023-05-15T06:12:10.486Z,14.41
2023-05-15T06:14:38.615Z,14.44
2023-05-15T06:17:08.610Z,14.28
2023-05-15T06:19:39.756Z,14.37
2023-05-15T06:22:08.755Z,14.43
2023-05-15T06:24:38.406Z,14.38
2023-05-15T06:27:07.325Z,14.61
2023-05-15T06:29:35.821Z,13.99
2023-05-15T06:32:04.219Z,14.17
2023-05-15T06:34:32.400Z,14.01
2023-05-15T06:37:00.935Z,14.06
2023-05-15T06:39:29.284Z,14.12
2023-05-15T06:42:01.802Z,14.25
2023-05-15T06:44:31.123Z,14.33
2023-05-15T06:46:59.594Z,14.45
2023-05-15T06:49:29.139Z,14.45
2023-05-15T06:51:57.606Z,14.63
2023-05-15T06:54:25.683Z,14.70
2023-05-15T06:56:54.064Z,14.62
2023-05-15T06:59:24.800Z,14.59
2023-05-15T07:01:53.408Z,14.50
2023-05-15T07:04:21.695Z,14.47
2023-05-15T07:06:50.674Z,14.32
2023-05-15T07:09:21.299Z,14.45
2023-05-15T07:11:49.438Z,14.45
2023-05-15T07:14:17.679Z,14.32
2023-05-15T07:16:48.345Z,14.24
2023-05-15T07:19:21.303Z,14.31
2023-05-15T07:21:50.047Z,14.26
2023-05-15T07:24:40.311Z,14.19
2023-05-15T07:27:08.953Z,14.44
2023-05-15T07:29:37.351Z,14.34
2023-05-15T07:32:07.765Z,14.46
2023-05-15T07:34:36.495Z,14.23
2023-05-15T07:37:04.946Z,14.25
2023-05-15T07:39:34.108Z,14.44
2023-05-15T07:42:02.384Z,14.26
2023-05-15T07:44:30.475Z,14.45
2023-05-15T07:47:00.871Z,14.42
2023-05-15T07:49:32.979Z,14.26
2023-05-15T07:52:02.383Z,14.43
2023-05-15T07:54:32.202Z,14.30
2023-05-15T07:57:00.331Z,14.48
2023-05-15T07:59:31.342Z,14.61
2023-05-15T08:01:59.810Z,14.70
2023-05-15T08:04:28.577Z,14.72
2023-05-15T08:06:58.506Z,14.66
2023-05-15T08:09:26.782Z,15.07
2023-05-15T08:11:57.533Z,15.17
2023-05-15T08:14:26.015Z,15.05
2023-05-15T08:16:54.297Z,15.04
2023-05-15T08:19:23.988Z,15.06
2023-05-15T08:21:52.609Z,15.14
2023-05-15T08:24:22.350Z,15.24
2023-05-15T08:26:50.760Z,15.12
2023-05-15T08:29:18.936Z,14.99
2023-05-15T08:31:47.173Z,15.09
2023-05-15T08:34:15.386Z,15.07
2023-05-15T08:36:43.531Z,15.01
2023-05-15T08:39:11.737Z,15.11
2023-05-15T08:41:49.250Z,15.43
2023-05-15T08:44:17.655Z,15.46
2023-05-15T08:46:46.462Z,15.54
2023-05-15T08:49:21.569Z,15.62
2023-05-15T08:51:49.653Z,15.95
2023-05-15T08:54:17.916Z,15.87
2023-05-15T08:56:47.941Z,15.95
2023-05-15T08:59:16.497Z,15.92
2023-05-15T09:01:46.319Z,15.94
2023-05-15T09:04:14.798Z,16.26
2023-05-15T09:06:45.143Z,16.46
2023-05-15T09:09:14.331Z,16.16
2023-05-15T09:11:45.687Z,16.18
2023-05-15T09:14:15.394Z,16.28
2023-05-15T09:16:43.618Z,16.45
2023-05-15T09:19:13.802Z,16.66
2023-05-15T09:21:41.999Z,16.72
2023-05-15T09:24:21.821Z,16.79
2023-05-15T09:27:03.258Z,16.67
2023-05-15T09:29:33.993Z,16.67
2023-05-15T09:32:04.512Z,16.62
2023-05-15T09:34:34.374Z,17.05
2023-05-15T09:37:05.396Z,16.89
2023-05-15T09:39:34.020Z,16.89
2023-05-15T09:42:10.332Z,16.86
2023-05-15T09:44:43.391Z,16.93
2023-05-15T09:47:16.985Z,16.84
2023-05-15T09:49:46.984Z,16.61
2023-05-15T09:52:17.535Z,16.66
2023-05-15T09:54:49.625Z,16.44
2023-05-15T09:57:23.520Z,16.46
2023-05-15T09:59:53.632Z,16.60
2023-05-15T10:02:25.712Z,16.73
2023-05-15T10:04:57.684Z,16.79
2023-05-15T10:07:30.181Z,16.84
2023-05-15T10:09:59.016Z,16.85
2023-05-15T10:12:28.060Z,16.89
2023-05-15T10:14:58.798Z,16.73
2023-05-15T10:17:29.218Z,16.91
2023-05-15T10:20:00.260Z,16.99
2023-05-15T10:22:32.292Z,17.11
2023-05-15T10:25:04.622Z,17.16
2023-05-15T10:27:36.287Z,17.32
2023-05-15T10:30:09.049Z,17.49
2023-05-15T10:32:38.003Z,17.84
2023-05-15T10:35:07.116Z,18.09
2023-05-15T10:37:36.958Z,18.24
2023-05-15T10:40:09.674Z,18.29
2023-05-15T10:42:38.433Z,18.09
2023-05-15T10:45:10.169Z,18.40
2023-05-15T10:47:39.445Z,18.44
2023-05-15T10:50:08.838Z,18.37
2023-05-15T10:52:38.805Z,18.48
2023-05-15T10:55:11.723Z,18.81
2023-05-15T10:57:40.742Z,18.78
2023-05-15T11:00:26.414Z,18.80
2023-05-15T11:02:57.516Z,18.82
2023-05-15T11:05:26.563Z,19.03
2023-05-15T11:08:28.552Z,18.83
2023-05-15T11:10:57.392Z,18.78
2023-05-15T11:13:27.063Z,19.10
2023-05-15T11:15:57.411Z,19.20
2023-05-15T11:18:26.873Z,19.20
2023-05-15T11:21:11.286Z,19.27
2023-05-15T11:23:42.053Z,19.37
2023-05-15T11:26:11.172Z,19.26
2023-05-15T11:28:44.980Z,18.97
2023-05-15T11:31:15.630Z,18.71
2023-05-15T11:33:43.828Z,18.62
2023-05-15T11:36:15.926Z,18.80
2023-05-15T11:38:44.790Z,18.94
2023-05-15T11:41:21.987Z,18.91
2023-05-15T11:43:51.572Z,18.84
2023-05-15T11:46:22.943Z,18.92
2023-05-15T11:48:51.979Z,18.85
2023-05-15T11:51:22.564Z,18.87
2023-05-15T11:53:51.778Z,18.92
2023-05-15T11:56:21.004Z,19.02
2023-05-15T11:58:53.067Z,18.87
2023-05-15T12:01:22.842Z,18.72
2023-05-15T12:03:51.594Z,18.41
2023-05-15T12:06:20.156Z,18.43
2023-05-15T12:08:54.211Z,18.59
2023-05-15T12:11:24.520Z,18.72
2023-05-15T12:13:53.192Z,18.73
2023-05-15T12:16:27.383Z,18.64
2023-05-15T12:18:57.850Z,18.73
2023-05-15T12:21:28.276Z,18.73
2023-05-15T12:24:07.050Z,18.68
2023-05-15T12:26:37.164Z,18.79
2023-05-15T12:29:05.932Z,18.73
2023-05-15T12:31:37.308Z,18.71
2023-05-15T12:34:05.977Z,18.89
2023-05-15T12:36:34.234Z,18.89
2023-05-15T12:39:07.953Z,18.92
2023-05-15T12:41:38.504Z,18.90
2023-05-15T12:44:07.240Z,18.91
2023-05-15T12:46:36.748Z,18.86
2023-05-15T12:49:04.829Z,18.81
2023-05-15T12:51:32.916Z,18.68
2023-05-15T12:54:01.330Z,18.49
2023-05-15T12:56:31.197Z,18.53
2023-05-15T12:58:59.539Z,18.62
2023-05-15T13:01:27.843Z,18.84
2023-05-15T13:03:58.728Z,19.02
2023-05-15T13:06:38.397Z,19.17
2023-05-15T13:09:14.332Z,19.36
2023-05-15T13:11:44.964Z,19.41
2023-05-15T13:14:17.703Z,19.39
2023-05-15T13:16:47.559Z,19.38
2023-05-15T13:19:17.543Z,19.22
2023-05-15T13:21:46.318Z,19.28
2023-05-15T13:24:14.574Z,19.20
2023-05-15T13:26:42.849Z,19.10
2023-05-15T13:29:11.105Z,19.13
2023-05-15T13:31:39.509Z,19.00
2023-05-15T13:34:07.683Z,19.00
2023-05-15T13:36:37.919Z,18.86
2023-05-15T13:39:06.592Z,18.83
2023-05-15T13:41:34.741Z,18.84
2023-05-15T13:44:02.935Z,18.76
2023-05-15T13:46:31.535Z,18.65
2023-05-15T13:49:00.354Z,18.68
2023-05-15T13:51:28.736Z,18.56
2023-05-15T13:53:58.133Z,18.33
2023-05-15T13:56:26.391Z,18.35
2023-05-15T13:58:55.042Z,18.49
2023-05-15T14:01:23.213Z,18.50
2023-05-15T14:03:51.505Z,18.53
2023-05-15T14:06:19.678Z,18.47
2023-05-15T14:08:47.888Z,18.48
2023-05-15T14:11:17.559Z,18.58
2023-05-15T14:13:45.795Z,18.59
2023-05-15T14:16:14.182Z,18.54
2023-05-15T14:18:42.351Z,18.34
2023-05-15T14:21:11.429Z,18.27
2023-05-15T14:23:39.554Z,18.17
2023-05-15T14:26:07.980Z,18.25
2023-05-15T14:28:37.842Z,18.14
2023-05-15T14:31:06.002Z,18.03
2023-05-15T14:33:34.242Z,17.90
2023-05-15T14:36:04.589Z,17.76
2023-05-15T14:38:33.022Z,17.66
2023-05-15T14:41:01.358Z,17.75
2023-05-15T14:43:30.184Z,17.62
2023-05-15T14:45:59.742Z,17.59
2023-05-15T14:48:30.036Z,17.66
2023-05-15T14:50:58.241Z,17.60
2023-05-15T14:53:26.285Z,17.65
2023-05-15T14:55:56.251Z,17.49
2023-05-15T14:58:24.372Z,17.19
2023-05-15T15:00:52.748Z,17.11
2023-05-15T15:03:22.595Z,17.11
2023-05-15T15:05:51.995Z,17.20
2023-05-15T15:08:20.734Z,17.16
2023-05-15T15:10:48.722Z,17.25
2023-05-15T15:13:17.350Z,17.24
2023-05-15T15:15:45.383Z,17.31
2023-05-15T15:18:13.475Z,17.45
2023-05-15T15:20:44.570Z,17.42
2023-05-15T15:23:13.644Z,17.36
2023-05-15T15:25:42.226Z,17.28
2023-05-15T15:28:10.607Z,17.25
2023-05-15T15:30:39.622Z,17.27
2023-05-15T15:33:07.821Z,17.16
2023-05-15T15:35:36.146Z,17.03
2023-05-15T15:38:05.694Z,16.99
2023-05-15T15:40:33.688Z,16.99
2023-05-15T15:43:01.870Z,17.03
2023-05-15T15:45:30.265Z,16.99
2023-05-15T15:47:58.994Z,16.98
2023-05-15T15:50:27.268Z,16.89
2023-05-15T15:52:55.852Z,16.85
2023-05-15T15:55:26.175Z,16.79
2023-05-15T15:57:54.659Z,16.73
2023-05-15T16:00:23.185Z,16.79
2023-05-15T16:02:51.580Z,16.90
2023-05-15T16:05:19.932Z,16.97
2023-05-15T16:07:48.992Z,16.95
2023-05-15T16:10:17.474Z,16.90
2023-05-15T16:12:47.488Z,16.84
2023-05-15T16:15:23.070Z,16.77
2023-05-15T16:17:55.025Z,16.81
2023-05-15T16:20:24.683Z,16.82
2023-05-15T16:22:53.746Z,16.87
2023-05-15T16:25:22.423Z,16.86
2023-05-15T16:27:52.062Z,16.74
2023-05-15T16:30:20.345Z,16.67
2023-05-15T16:32:48.903Z,16.58
2023-05-15T16:35:17.330Z,16.64
2023-05-15T16:37:46.950Z,16.78
2023-05-15T16:40:16.091Z,16.77
2023-05-15T16:42:44.781Z,16.77
2023-05-15T16:45:15.075Z,16.71
2023-05-15T16:47:43.153Z,16.69
2023-05-15T16:50:11.873Z,16.68
2023-05-15T16:52:45.566Z,16.73
2023-05-15T16:55:15.529Z,16.73
2023-05-15T16:57:45.336Z,16.61
2023-05-15T17:00:17.140Z,16.56
2023-05-15T17:02:45.912Z,16.50
2023-05-15T17:05:15.404Z,16.39
2023-05-15T17:07:45.124Z,16.34
2023-05-15T17:10:14.335Z,16.32
2023-05-15T17:12:42.542Z,16.28
2023-05-15T17:15:11.318Z,16.19
2023-05-15T17:17:40.970Z,16.14
2023-05-15T17:20:10.669Z,16.10
2023-05-15T17:22:38.981Z,16.03
2023-05-15T17:25:08.896Z,15.89
2023-05-15T17:27:39.915Z,15.89
2023-05-15T17:30:09.639Z,15.83
2023-05-15T17:32:39.123Z,15.80
2023-05-15T17:35:11.518Z,15.79
2023-05-15T17:37:40.132Z,15.67
2023-05-15T17:40:10.228Z,15.81
2023-05-15T17:42:39.350Z,15.79
2023-05-15T17:45:08.943Z,15.71
2023-05-15T17:47:37.304Z,15.57
2023-05-15T17:50:09.394Z,15.68
2023-05-15T17:52:38.862Z,15.59
2023-05-15T17:55:08.507Z,15.60
2023-05-15T17:57:36.673Z,15.48
2023-05-15T18:00:07.150Z,15.42
2023-05-15T18:02:35.523Z,15.48
2023-05-15T18:05:04.042Z,15.49
2023-05-15T18:07:33.866Z,15.45
2023-05-15T18:10:02.332Z,15.26
2023-05-15T18:12:33.233Z,15.38
2023-05-15T18:15:01.441Z,15.40
2023-05-15T18:17:30.301Z,15.23
2023-05-15T18:19:58.735Z,15.10
2023-05-15T18:22:28.048Z,15.03
2023-05-15T18:24:59.096Z,15.18
2023-05-15T18:27:33.009Z,15.26
2023-05-15T18:30:05.152Z,15.27
2023-05-15T18:32:34.606Z,15.30
2023-05-15T18:35:04.040Z,15.35
2023-05-15T18:37:32.266Z,15.37
2023-05-15T18:40:02.067Z,15.31
2023-05-15T18:42:30.621Z,15.29
2023-05-15T18:45:04.889Z,15.28
2023-05-15T18:47:33.653Z,15.28
2023-05-15T18:50:01.992Z,15.15
2023-05-15T18:52:30.092Z,15.10
2023-05-15T18:54:58.568Z,15.15
2023-05-15T18:57:28.410Z,15.03
2023-05-15T18:59:56.735Z,14.94
2023-05-15T19:02:26.268Z,14.87
2023-05-15T19:04:54.864Z,14.94
2023-05-15T19:07:23.079Z,14.91
2023-05-15T19:09:51.969Z,14.86
2023-05-15T19:12:20.761Z,14.92
2023-05-15T19:14:50.836Z,14.91
2023-05-15T19:17:20.414Z,14.88
2023-05-15T19:19:48.912Z,14.93
2023-05-15T19:22:17.790Z,14.84
2023-05-15T19:24:47.003Z,14.93
2023-05-15T19:27:15.650Z,14.88
2023-05-15T19:29:45.447Z,14.94
2023-05-15T19:32:15.387Z,15.04
2023-05-15T19:34:43.786Z,15.07
2023-05-15T19:37:12.555Z,15.07
2023-05-15T19:39:41.654Z,15.02
2023-05-15T19:42:10.341Z,14.93
2023-05-15T19:44:38.996Z,14.95
2023-05-15T19:47:09.028Z,14.95
2023-05-15T19:49:38.715Z,14.92
2023-05-15T19:52:07.455Z,14.94
2023-05-15T19:54:35.784Z,14.86
2023-05-15T19:57:04.082Z,14.82
2023-05-15T19:59:32.380Z,14.78
2023-05-15T20:02:06.215Z,14.83
2023-05-15T20:04:35.348Z,14.83
2023-05-15T20:07:05.306Z,14.86
2023-05-15T20:09:33.991Z,14.85
2023-05-15T20:12:03.528Z,14.80
2023-05-15T20:14:34.252Z,14.69
2023-05-15T20:17:03.713Z,14.78
2023-05-15T20:19:32.000Z,14.80
2023-05-15T20:22:00.285Z,14.77
2023-05-15T20:24:30.365Z,14.67
2023-05-15T20:26:58.646Z,14.71
2023-05-15T20:29:26.931Z,14.75
2023-05-15T20:31:55.596Z,14.68
2023-05-15T20:34:24.237Z,14.54
2023-05-15T20:36:52.800Z,14.55
2023-05-15T20:39:21.439Z,14.62
2023-05-15T20:41:51.090Z,14.66
2023-05-15T20:44:19.201Z,14.64
2023-05-15T20:46:47.408Z,14.55
2023-05-15T20:49:15.745Z,14.55
2023-05-15T20:51:44.682Z,14.48
2023-05-15T20:54:12.960Z,14.42
2023-05-15T20:56:41.112Z,14.36
2023-05-15T20:59:11.082Z,14.34
2023-05-15T21:01:39.367Z,14.38
2023-05-15T21:04:08.079Z,14.38
2023-05-15T21:06:37.106Z,14.38
2023-05-15T21:09:05.458Z,14.34
2023-05-15T21:11:33.597Z,14.32
2023-05-15T21:14:01.932Z,14.26
2023-05-15T21:16:31.488Z,14.27
2023-05-15T21:19:01.374Z,14.23
2023-05-15T21:21:30.133Z,14.17
2023-05-15T21:24:02.162Z,14.14
2023-05-15T21:26:30.285Z,14.13
2023-05-15T21:28:59.205Z,14.13
2023-05-15T21:31:27.988Z,14.13
2023-05-15T21:33:57.911Z,14.10
2023-05-15T21:36:26.055Z,14.23
2023-05-15T21:38:54.204Z,14.22
2023-05-15T21:41:22.344Z,14.15
2023-05-15T21:43:50.451Z,14.12
2023-05-15T21:46:18.629Z,14.10
2023-05-15T21:48:46.802Z,14.10
2023-05-15T21:51:16.204Z,14.01
2023-05-15T21:53:44.338Z,14.00
2023-05-15T21:56:12.509Z,14.05
2023-05-15T21:58:40.621Z,14.05
2023-05-15T22:01:08.795Z,14.07
2023-05-15T22:03:36.925Z,14.04
2023-05-15T22:06:05.520Z,14.03
2023-05-15T22:08:35.137Z,14.00
2023-05-15T22:11:03.946Z,13.98
2023-05-15T22:13:32.088Z,13.93
2023-05-15T22:16:00.354Z,13.93
2023-05-15T22:18:29.125Z,13.89
2023-05-15T22:20:57.594Z,13.89
2023-05-15T22:23:26.287Z,13.97
2023-05-15T22:25:55.875Z,13.92
2023-05-15T22:28:24.188Z,13.83
2023-05-15T22:30:52.315Z,13.80
2023-05-15T22:33:24.587Z,13.77
2023-05-15T22:35:53.305Z,13.74
2023-05-15T22:38:21.480Z,13.73
2023-05-15T22:40:51.564Z,13.73
2023-05-15T22:43:21.573Z,13.71
2023-05-15T22:45:49.800Z,13.71
2023-05-15T22:48:17.974Z,13.71
2023-05-15T22:50:46.138Z,13.73
2023-05-15T22:53:14.306Z,13.68
2023-05-15T22:55:42.576Z,13.69
2023-05-15T22:58:10.731Z,13.63
2023-05-15T23:00:40.205Z,13.60
2023-05-15T23:03:08.495Z,13.59
2023-05-15T23:05:36.692Z,13.59
2023-05-15T23:08:04.930Z,13.56
2023-05-15T23:10:33.034Z,13.56
2023-05-15T23:13:01.143Z,13.55
2023-05-15T23:15:29.358Z,13.55
2023-05-15T23:17:58.828Z,13.52
2023-05-15T23:20:27.267Z,13.53
2023-05-15T23:22:56.109Z,13.51
2023-05-15T23:25:24.357Z,13.46
2023-05-15T23:27:53.114Z,13.44
2023-05-15T23:30:21.536Z,13.44
2023-05-15T23:32:50.410Z,13.45
2023-05-15T23:35:20.420Z,13.51
2023-05-15T23:37:48.477Z,13.53
2023-05-15T23:40:16.937Z,13.52
2023-05-15T23:42:45.039Z,13.53
2023-05-15T23:45:13.859Z,13.51
2023-05-15T23:47:42.510Z,13.48
2023-05-15T23:50:10.860Z,13.46
2023-05-15T23:52:40.419Z,13.41
2023-05-15T23:55:09.523Z,13.38
2023-05-15T23:57:37.686Z,13.35
